Time;durP1;ratioP1;P1;durP2;ratioP2;P2;SDS_P1;SDS_P2;PMS_P1;PMS_P2;Temp;Humidity;BMP_temperature;BMP_pressure;BME280_temperature;BME280_humidity;BME280_pressure;Samples;Min_cycle;Max_cycle;Signal;HPM_P1;HPM_P2
2022/10/26 00:01:28;;;;;;;4.57;1.70;;;11.80;99.90;;;;;;5007171;28;20068;-63
2022/10/26 00:03:55;;;;;;;5.25;1.98;;;11.80;99.90;;;;;;5000363;28;21259;-63
2022/10/26 00:06:29;;;;;;;9.20;1.20;;;11.80;99.90;;;;;;5018612;28;20373;-64
2022/10/26 00:08:56;;;;;;;6.38;1.50;;;11.80;99.90;;;;;;5029010;28;20025;-62
2022/10/26 00:11:22;;;;;;;1.90;1.45;;;11.90;99.90;;;;;;5028572;28;20029;-63
2022/10/26 00:13:48;;;;;;;3.90;1.35;;;11.80;99.90;;;;;;5029061;28;20494;-63
2022/10/26 00:16:15;;;;;;;2.95;1.40;;;11.90;99.90;;;;;;5026027;28;20116;-63
2022/10/26 00:18:41;;;;;;;3.38;1.50;;;11.90;99.90;;;;;;5025707;28;20052;-63
2022/10/26 00:21:09;;;;;;;4.97;1.42;;;11.80;99.90;;;;;;5014422;28;20029;-64
2022/10/26 00:23:35;;;;;;;6.50;1.80;;;11.80;99.90;;;;;;5017044;28;20505;-64
2022/10/26 00:26:01;;;;;;;7.00;1.40;;;11.90;99.90;;;;;;5018537;28;20025;-63
2022/10/26 00:28:26;;;;;;;4.15;2.33;;;11.90;99.90;;;;;;5021509;28;20018;-63
2022/10/26 00:30:52;;;;;;;2.97;1.60;;;11.90;99.90;;;;;;5024434;28;20512;-63
2022/10/26 00:33:18;;;;;;;4.93;1.35;;;11.80;99.90;;;;;;5026700;28;20033;-63
2022/10/26 00:35:47;;;;;;;4.20;1.58;;;11.80;99.90;;;;;;5028483;28;20112;-63
2022/10/26 00:38:13;;;;;;;15.00;1.95;;;11.80;99.90;;;;;;5026643;28;20039;-63
2022/10/26 00:40:39;;;;;;;4.55;1.60;;;11.70;99.90;;;;;;5026383;28;20404;-64
2022/10/26 00:43:20;;;;;;;4.55;1.10;;;11.70;99.90;;;;;;5029053;28;20029;-63
2022/10/26 00:45:48;;;;;;;5.38;1.70;;;11.70;99.90;;;;;;5023750;28;20025;-63
2022/10/26 00:48:23;;;;;;;2.55;1.42;;;11.70;99.90;;;;;;5027007;28;20026;-63
2022/10/26 00:50:51;;;;;;;7.35;2.05;;;11.70;99.90;;;;;;5028250;28;20029;-63
2022/10/26 00:53:18;;;;;;;6.57;1.92;;;11.80;99.90;;;;;;5029376;28;20030;-63
2022/10/26 00:56:01;;;;;;;6.13;2.05;;;11.80;99.90;;;;;;5010822;28;20050;-63
2022/10/26 00:58:27;;;;;;;4.53;1.95;;;11.80;99.90;;;;;;4994708;28;20018;-63
2022/10/26 01:00:53;;;;;;;2.80;1.90;;;11.80;99.90;;;;;;5031902;28;20091;-63
2022/10/26 01:03:20;;;;;;;6.97;1.88;;;11.80;99.90;;;;;;5007543;28;20060;-63
2022/10/26 01:05:48;;;;;;;6.03;1.77;;;11.80;99.90;;;;;;5028644;28;20121;-63
2022/10/26 01:08:16;;;;;;;3.13;1.95;;;11.80;99.90;;;;;;5028403;28;20044;-63
2022/10/26 01:10:42;;;;;;;3.47;1.35;;;11.80;99.90;;;;;;5025659;28;20505;-63
2022/10/26 01:13:08;;;;;;;8.10;1.60;;;11.80;99.90;;;;;;5022980;28;20028;-63
2022/10/26 01:16:06;;;;;;;3.50;1.40;;;11.80;99.90;;;;;;5017572;28;20029;-63
2022/10/26 01:18:53;;;;;;;3.20;1.70;;;11.90;99.90;;;;;;5022858;28;20040;-63
2022/10/26 01:21:55;;;;;;;5.20;1.30;;;11.90;99.90;;;;;;5023386;28;20034;-64
2022/10/26 01:24:28;;;;;;;6.20;1.38;;;11.90;99.90;;;;;;5019756;28;20128;-64
2022/10/26 01:27:02;;;;;;;2.17;1.23;;;11.90;99.90;;;;;;5022872;28;20033;-63
2022/10/26 01:29:59;;;;;;;7.50;2.45;;;12.00;99.90;;;;;;5023165;28;20037;-63
2022/10/26 01:32:55;;;;;;;7.20;1.50;;;12.00;99.90;;;;;;5018417;28;20033;-63
2022/10/26 01:35:42;;;;;;;1.52;1.20;;;12.00;99.90;;;;;;5023805;28;20033;-63
2022/10/26 01:38:19;;;;;;;4.90;1.90;;;12.00;99.90;;;;;;5021612;28;20028;-63
2022/10/26 01:40:54;;;;;;;7.70;1.67;;;12.00;99.90;;;;;;5026740;28;20520;-63
2022/10/26 01:43:21;;;;;;;5.97;1.52;;;12.10;99.90;;;;;;5027073;28;20481;-64
2022/10/26 01:45:49;;;;;;;10.50;1.50;;;12.10;99.90;;;;;;5028171;28;20045;-63
2022/10/26 01:48:18;;;;;;;3.58;1.48;;;12.00;99.90;;;;;;5027814;28;20038;-63
2022/10/26 01:50:48;;;;;;;3.67;1.70;;;12.00;99.90;;;;;;5026034;28;20036;-63
2022/10/26 01:53:15;;;;;;;4.47;1.45;;;12.00;99.90;;;;;;5030254;28;20041;-63
2022/10/26 01:55:46;;;;;;;3.22;1.50;;;12.00;99.90;;;;;;5029655;28;20024;-63
2022/10/26 01:58:22;;;;;;;9.23;2.70;;;12.10;99.90;;;;;;5027928;28;20038;-63
2022/10/26 02:01:11;;;;;;;5.50;1.75;;;12.10;99.90;;;;;;5027437;28;20048;-63
2022/10/26 02:03:45;;;;;;;4.07;1.23;;;12.20;99.90;;;;;;5011604;28;20053;-63
2022/10/26 02:06:17;;;;;;;;;;;12.20;99.90;;;;;;5027364;28;20052;-63
2022/10/26 02:08:55;;;;;;;6.43;1.73;;;12.30;99.90;;;;;;5029117;28;19944;-63
2022/10/26 02:11:47;;;;;;;3.25;1.50;;;12.30;99.90;;;;;;5026037;28;20026;-64
2022/10/26 02:14:35;;;;;;;5.78;1.70;;;12.30;99.90;;;;;;5027859;28;20032;-63
2022/10/26 02:17:22;;;;;;;2.58;1.55;;;12.30;99.90;;;;;;5024141;28;20496;-64
2022/10/26 02:20:00;;;;;;;2.40;1.40;;;12.30;99.90;;;;;;5029301;28;20033;-64
2022/10/26 02:22:32;;;;;;;6.72;1.50;;;12.30;99.90;;;;;;5030668;28;20112;-64
2022/10/26 02:24:59;;;;;;;3.33;1.63;;;12.30;99.90;;;;;;5025007;28;20034;-63
2022/10/26 02:27:30;;;;;;;7.07;2.20;;;12.30;99.90;;;;;;5029995;28;20021;-63
2022/10/26 02:29:56;;;;;;;4.28;1.63;;;12.40;99.90;;;;;;5031203;28;20517;-63
2022/10/26 02:32:26;;;;;;;7.28;2.47;;;12.50;99.90;;;;;;5031014;28;20021;-64
2022/10/26 02:34:55;;;;;;;4.72;1.52;;;12.50;99.90;;;;;;5028708;28;20100;-63
2022/10/26 02:37:22;;;;;;;3.83;1.48;;;12.50;99.90;;;;;;5030352;28;20022;-63
2022/10/26 02:39:50;;;;;;;5.03;1.75;;;12.50;99.90;;;;;;5030361;28;20033;-63
2022/10/26 02:42:17;;;;;;;5.50;1.63;;;12.50;99.90;;;;;;5030035;28;20036;-64
2022/10/26 02:45:05;;;;;;;3.55;1.80;;;12.60;99.90;;;;;;5030048;28;20135;-64
2022/10/26 02:47:32;;;;;;;5.57;1.50;;;12.60;99.90;;;;;;5025935;28;20111;-63
2022/10/26 02:49:58;;;;;;;2.70;1.13;;;12.60;99.90;;;;;;5031185;28;20237;-64
2022/10/26 02:52:38;;;;;;;9.20;2.70;;;12.60;99.90;;;;;;5022931;28;20528;-64
2022/10/26 02:55:17;;;;;;;4.05;1.42;;;12.60;99.90;;;;;;5031880;28;20029;-63
2022/10/26 02:57:48;;;;;;;3.50;1.70;;;12.60;99.90;;;;;;5026187;28;20447;-63
2022/10/26 03:00:16;;;;;;;5.15;1.40;;;12.70;99.90;;;;;;5028777;28;20030;-64
2022/10/26 03:02:43;;;;;;;4.38;1.70;;;12.70;99.90;;;;;;5009341;28;20377;-63
2022/10/26 03:05:27;;;;;;;5.30;1.75;;;12.60;99.90;;;;;;5024238;28;20504;-64
2022/10/26 03:07:54;;;;;;;4.95;1.45;;;12.70;99.90;;;;;;5031147;28;20508;-63
2022/10/26 03:10:20;;;;;;;5.55;1.80;;;12.60;99.90;;;;;;5011850;28;20032;-63
2022/10/26 03:12:46;;;;;;;2.33;1.50;;;12.60;99.90;;;;;;5028955;28;20029;-63
2022/10/26 03:15:11;;;;;;;5.90;1.50;;;12.60;99.90;;;;;;5029011;28;20083;-63
2022/10/26 03:17:37;;;;;;;4.88;1.48;;;12.60;99.90;;;;;;5028958;28;20478;-64
2022/10/26 03:20:03;;;;;;;2.50;1.30;;;12.60;99.90;;;;;;5027810;28;20049;-63
2022/10/26 03:22:29;;;;;;;5.78;2.25;;;12.60;99.90;;;;;;5028169;28;20111;-63
2022/10/26 03:24:55;;;;;;;7.05;1.58;;;12.60;99.90;;;;;;5027811;28;20057;-64
2022/10/26 03:27:20;;;;;;;5.40;1.73;;;12.60;99.90;;;;;;5028953;28;20409;-63
2022/10/26 03:29:46;;;;;;;10.60;2.17;;;12.60;99.90;;;;;;5029528;28;20034;-64
2022/10/26 03:32:12;;;;;;;7.88;1.73;;;12.60;99.90;;;;;;5026934;28;20053;-64
2022/10/26 03:34:37;;;;;;;7.55;1.88;;;12.60;99.90;;;;;;5028146;28;20554;-64
2022/10/26 03:37:03;;;;;;;6.13;1.60;;;12.60;99.90;;;;;;5027608;28;20037;-63
2022/10/26 03:39:28;;;;;;;5.55;2.10;;;12.60;99.90;;;;;;5027167;28;20029;-63
2022/10/26 03:41:54;;;;;;;4.72;1.52;;;12.60;99.90;;;;;;5011041;28;20104;-64
2022/10/26 03:44:20;;;;;;;5.75;1.50;;;12.60;99.90;;;;;;5028679;28;20117;-63
2022/10/26 03:46:46;;;;;;;3.80;1.70;;;12.60;99.90;;;;;;5027201;28;20556;-62
2022/10/26 03:49:12;;;;;;;7.35;1.35;;;12.50;99.90;;;;;;5029071;28;20124;-63
2022/10/26 03:51:37;;;;;;;5.05;2.03;;;12.50;99.90;;;;;;5029918;28;20024;-62
2022/10/26 03:54:03;;;;;;;6.03;1.52;;;12.50;99.90;;;;;;5028590;28;20112;-63
2022/10/26 03:56:29;;;;;;;6.75;1.52;;;12.40;99.90;;;;;;5029783;28;20100;-63
2022/10/26 03:58:54;;;;;;;4.72;1.95;;;12.50;99.90;;;;;;5025284;28;20521;-62
2022/10/26 04:01:20;;;;;;;7.05;1.50;;;12.50;99.90;;;;;;5028096;28;20029;-63
2022/10/26 04:03:46;;;;;;;11.20;2.65;;;12.50;99.90;;;;;;5012068;28;20463;-62
2022/10/26 04:06:11;;;;;;;5.68;1.55;;;12.50;99.90;;;;;;5029566;28;20035;-64
2022/10/26 04:08:37;;;;;;;4.70;1.83;;;12.50;99.90;;;;;;5027774;28;20029;-63
2022/10/26 04:11:03;;;;;;;8.63;1.77;;;12.60;99.90;;;;;;5028350;28;20017;-63
2022/10/26 04:13:28;;;;;;;4.70;1.58;;;12.50;99.90;;;;;;5027603;28;20433;-63
2022/10/26 04:15:54;;;;;;;4.45;2.20;;;12.60;99.90;;;;;;5027947;28;20109;-63
2022/10/26 04:18:19;;;;;;;2.53;1.30;;;12.50;99.90;;;;;;5029450;28;20029;-64
2022/10/26 04:20:45;;;;;;;4.82;1.52;;;12.60;99.90;;;;;;5026940;28;20108;-64
2022/10/26 04:23:13;;;;;;;7.03;1.50;;;12.50;99.90;;;;;;5026669;28;20033;-64
2022/10/26 04:25:39;;;;;;;3.55;1.63;;;12.50;99.90;;;;;;5026632;28;20021;-64
2022/10/26 04:28:06;;;;;;;8.82;1.80;;;12.50;99.90;;;;;;5027488;28;20033;-64
2022/10/26 04:30:33;;;;;;;2.33;1.60;;;12.50;99.90;;;;;;5026984;28;20029;-64
2022/10/26 04:32:59;;;;;;;4.05;1.90;;;12.50;99.90;;;;;;5025442;28;20060;-64
2022/10/26 04:35:25;;;;;;;4.43;2.25;;;12.50;99.90;;;;;;5027723;28;20065;-64
2022/10/26 04:37:51;;;;;;;5.07;1.67;;;12.50;99.90;;;;;;5027928;28;20048;-63
2022/10/26 04:40:16;;;;;;;5.32;1.83;;;12.50;99.90;;;;;;5010168;28;20025;-64
2022/10/26 04:42:45;;;;;;;4.32;2.00;;;12.60;99.90;;;;;;5028567;28;20029;-65
2022/10/26 04:45:12;;;;;;;7.38;2.10;;;12.60;99.90;;;;;;5027208;28;20029;-64
2022/10/26 04:47:38;;;;;;;5.55;1.60;;;12.60;99.90;;;;;;5028285;28;20030;-64
2022/10/26 04:50:05;;;;;;;5.82;1.63;;;12.60;99.90;;;;;;5026494;28;20044;-64
2022/10/26 04:52:31;;;;;;;2.92;1.92;;;12.60;99.90;;;;;;5027700;28;20362;-64
2022/10/26 04:54:56;;;;;;;9.30;1.58;;;12.60;99.90;;;;;;5027920;28;20032;-65
2022/10/26 04:57:22;;;;;;;7.70;1.80;;;12.60;99.90;;;;;;5026758;28;20033;-64
2022/10/26 04:59:47;;;;;;;3.67;1.73;;;12.60;99.90;;;;;;5026193;28;20199;-64
2022/10/26 05:02:13;;;;;;;6.93;1.50;;;12.70;99.90;;;;;;5026412;28;20037;-64
2022/10/26 05:04:39;;;;;;;6.65;1.45;;;12.70;99.90;;;;;;5012071;28;20516;-64
2022/10/26 05:07:04;;;;;;;3.47;1.35;;;12.80;99.90;;;;;;5026396;28;20120;-64
2022/10/26 05:09:30;;;;;;;4.88;1.92;;;12.80;99.90;;;;;;5029146;28;20480;-60
2022/10/26 05:11:55;;;;;;;7.10;1.15;;;12.80;99.90;;;;;;5024150;28;20405;-64
2022/10/26 05:14:21;;;;;;;4.30;1.50;;;12.80;99.90;;;;;;4997551;28;20141;-64
2022/10/26 05:16:46;;;;;;;2.65;1.52;;;12.80;99.90;;;;;;5026856;28;20049;-64
2022/10/26 05:19:12;;;;;;;6.32;1.23;;;12.80;99.90;;;;;;5024443;28;20029;-64
2022/10/26 05:21:37;;;;;;;3.85;1.80;;;12.90;99.90;;;;;;5027289;28;20029;-64
2022/10/26 05:24:03;;;;;;;3.08;1.10;;;12.90;99.90;;;;;;5032918;28;20033;-64
2022/10/26 05:26:29;;;;;;;1.92;1.30;;;12.90;99.90;;;;;;5012062;28;20044;-64
2022/10/26 05:28:54;;;;;;;13.90;1.48;;;13.00;99.90;;;;;;5029906;28;20033;-64
2022/10/26 05:31:20;;;;;;;3.85;1.70;;;13.10;99.90;;;;;;5030742;28;20681;-64
2022/10/26 05:33:49;;;;;;;4.80;1.30;;;13.10;99.90;;;;;;5031054;28;20025;-64
2022/10/26 05:36:16;;;;;;;1.85;1.00;;;13.20;99.90;;;;;;5029228;28;20029;-64
2022/10/26 05:38:42;;;;;;;2.97;2.15;;;13.20;99.90;;;;;;5030837;28;20444;-64
2022/10/26 05:41:08;;;;;;;5.95;1.13;;;13.20;99.90;;;;;;5030493;28;20026;-64
2022/10/26 05:43:33;;;;;;;8.80;1.48;;;13.30;99.90;;;;;;5031390;28;20035;-64
2022/10/26 05:45:59;;;;;;;4.22;1.15;;;13.30;99.90;;;;;;5029629;28;20025;-64
2022/10/26 05:48:24;;;;;;;1.20;0.90;;;13.30;99.90;;;;;;5031148;28;20041;-64
2022/10/26 05:50:50;;;;;;;4.32;1.13;;;13.30;99.90;;;;;;5029379;28;20029;-64
2022/10/26 05:53:16;;;;;;;10.05;2.22;;;13.40;99.90;;;;;;5030697;28;20033;-65
2022/10/26 05:55:42;;;;;;;2.80;1.10;;;13.40;99.90;;;;;;5013682;28;20025;-64
2022/10/26 05:58:13;;;;;;;2.70;0.95;;;13.40;99.90;;;;;;5030042;28;20032;-64
2022/10/26 06:01:25;;;;;;;2.33;1.13;;;13.40;99.90;;;;;;5030758;28;20029;-64
2022/10/26 06:04:20;;;;;;;4.13;1.45;;;13.40;99.90;;;;;;5029520;28;20140;-65
2022/10/26 06:06:49;;;;;;;3.53;1.10;;;13.40;99.90;;;;;;5025838;28;20041;-64
2022/10/26 06:09:15;;;;;;;4.10;1.60;;;13.40;99.90;;;;;;5031270;28;20037;-65
2022/10/26 06:11:41;;;;;;;4.32;1.52;;;13.40;99.90;;;;;;5031396;28;20025;-64
2022/10/26 06:14:08;;;;;;;1.48;1.00;;;13.40;99.90;;;;;;5028754;28;21060;-64
2022/10/26 06:17:11;;;;;;;7.47;1.20;;;13.40;99.90;;;;;;5029127;28;20473;-64
2022/10/26 06:20:03;;;;;;;4.50;1.52;;;13.40;99.90;;;;;;5031895;28;20029;-64
2022/10/26 06:22:51;;;;;;;3.60;1.42;;;13.40;99.90;;;;;;5030967;28;20052;-64
2022/10/26 06:25:26;;;;;;;4.57;1.50;;;13.40;99.90;;;;;;5028507;28;20025;-65
2022/10/26 06:27:52;;;;;;;2.55;1.05;;;13.40;99.90;;;;;;5028617;28;20026;-64
2022/10/26 06:30:19;;;;;;;4.05;1.58;;;13.40;99.90;;;;;;5028652;28;20510;-64
2022/10/26 06:32:45;;;;;;;6.53;1.23;;;13.50;99.90;;;;;;5029820;28;20029;-64
2022/10/26 06:35:22;;;;;;;2.42;1.70;;;13.40;99.90;;;;;;5029167;28;20041;-64
2022/10/26 06:37:49;;;;;;;2.33;1.10;;;13.40;99.90;;;;;;5027608;28;20018;-64
2022/10/26 06:40:16;;;;;;;5.25;1.40;;;13.40;99.90;;;;;;5008367;28;20083;-64
2022/10/26 06:42:42;;;;;;;4.30;1.30;;;13.30;99.90;;;;;;5031196;28;20022;-64
2022/10/26 06:45:13;;;;;;;4.55;1.13;;;13.30;99.90;;;;;;5030970;28;20037;-64
2022/10/26 06:47:59;;;;;;;9.43;1.80;;;13.30;99.90;;;;;;5030449;28;20036;-64
2022/10/26 06:50:41;;;;;;;3.00;1.20;;;13.40;99.90;;;;;;5028070;28;20485;-64
2022/10/26 06:53:41;;;;;;;2.30;1.05;;;13.40;99.90;;;;;;5031231;28;20033;-64
2022/10/26 06:56:10;;;;;;;7.40;1.25;;;13.40;99.90;;;;;;5024113;28;20104;-64
2022/10/26 06:58:38;;;;;;;5.65;1.58;;;13.40;99.90;;;;;;5030470;28;20392;-64
2022/10/26 07:01:05;;;;;;;1.92;1.30;;;13.40;99.90;;;;;;5026760;28;20497;-64
2022/10/26 07:03:30;;;;;;;3.00;1.75;;;13.40;99.90;;;;;;5029450;28;20056;-65
2022/10/26 07:05:56;;;;;;;2.78;1.50;;;13.50;99.90;;;;;;5031154;28;20063;-64
2022/10/26 07:08:21;;;;;;;3.72;1.17;;;13.50;99.90;;;;;;5029433;28;20060;-64
2022/10/26 07:10:47;;;;;;;4.82;1.33;;;13.60;99.90;;;;;;5027132;28;20067;-64
2022/10/26 07:13:13;;;;;;;8.57;1.90;;;13.50;99.90;;;;;;5029143;28;20370;-64
2022/10/26 07:15:39;;;;;;;5.15;1.65;;;13.50;99.90;;;;;;5027557;28;20030;-64
2022/10/26 07:18:06;;;;;;;3.15;1.30;;;13.40;99.90;;;;;;5030148;28;20028;-65
2022/10/26 07:20:36;;;;;;;6.00;1.45;;;13.40;99.90;;;;;;5027733;28;20037;-64
2022/10/26 07:23:05;;;;;;;5.40;1.63;;;13.50;99.90;;;;;;5030858;28;20022;-66
2022/10/26 07:25:31;;;;;;;3.85;1.25;;;13.50;99.90;;;;;;5029230;28;20045;-64
2022/10/26 07:27:58;;;;;;;3.47;1.70;;;13.50;99.90;;;;;;5032142;28;20037;-64
2022/10/26 07:30:25;;;;;;;5.22;1.50;;;13.60;99.90;;;;;;5029255;28;20021;-65
2022/10/26 07:32:58;;;;;;;3.72;1.58;;;13.60;99.90;;;;;;5028167;28;20029;-64
2022/10/26 07:35:23;;;;;;;5.28;1.73;;;13.60;99.90;;;;;;5027659;28;20079;-64
2022/10/26 07:37:49;;;;;;;5.13;1.83;;;13.60;99.90;;;;;;5029274;28;20033;-64
2022/10/26 07:40:15;;;;;;;4.95;1.80;;;13.70;99.90;;;;;;5028601;28;20034;-64
2022/10/26 07:42:40;;;;;;;4.13;1.42;;;13.80;99.90;;;;;;5025609;28;20040;-64
2022/10/26 07:45:06;;;;;;;4.13;1.35;;;13.80;99.90;;;;;;5026950;28;20554;-64
2022/10/26 07:47:32;;;;;;;4.85;1.50;;;13.90;99.90;;;;;;5027299;28;20060;-64
2022/10/26 07:49:57;;;;;;;4.45;1.55;;;13.90;99.90;;;;;;5028083;28;20056;-65
2022/10/26 07:52:23;;;;;;;2.60;2.15;;;14.10;99.90;;;;;;5026662;28;20018;-64
2022/10/26 07:54:48;;;;;;;2.15;1.10;;;14.10;99.90;;;;;;5029036;28;20029;-64
2022/10/26 07:57:16;;;;;;;2.63;1.85;;;14.20;99.90;;;;;;5029186;28;20035;-64
2022/10/26 07:59:41;;;;;;;6.65;1.55;;;14.30;99.90;;;;;;5028281;28;20520;-65
2022/10/26 08:02:08;;;;;;;3.88;1.48;;;14.40;99.90;;;;;;5028180;28;20064;-65
2022/10/26 08:04:34;;;;;;;5.03;2.00;;;14.60;99.90;;;;;;5025420;28;20124;-64
2022/10/26 08:06:59;;;;;;;4.85;1.40;;;14.60;99.90;;;;;;5029552;28;20104;-64
2022/10/26 08:09:25;;;;;;;5.20;1.70;;;14.70;99.90;;;;;;5026349;28;20025;-64
2022/10/26 08:11:50;;;;;;;8.48;1.60;;;14.70;99.90;;;;;;5028235;28;20076;-64
2022/10/26 08:14:16;;;;;;;3.20;1.48;;;14.70;99.90;;;;;;5027880;28;20808;-64
2022/10/26 08:16:42;;;;;;;4.63;1.40;;;14.70;99.90;;;;;;5009085;28;20036;-65
2022/10/26 08:19:07;;;;;;;2.92;1.50;;;14.70;99.90;;;;;;5027429;28;20038;-64
2022/10/26 08:21:33;;;;;;;7.60;1.80;;;14.60;99.90;;;;;;5028789;28;20033;-65
2022/10/26 08:23:58;;;;;;;7.25;2.00;;;14.60;99.90;;;;;;5028533;28;20060;-64
2022/10/26 08:26:24;;;;;;;5.57;1.50;;;14.50;99.90;;;;;;5027561;28;20493;-65
2022/10/26 08:28:49;;;;;;;3.30;1.55;;;14.40;99.90;;;;;;5010456;28;20176;-65
2022/10/26 08:31:15;;;;;;;9.02;2.33;;;14.50;99.90;;;;;;5028583;28;20037;-64
2022/10/26 08:33:41;;;;;;;5.97;2.78;;;14.60;99.90;;;;;;5028529;28;20052;-64
2022/10/26 08:36:06;;;;;;;7.47;2.53;;;14.70;99.90;;;;;;5028081;28;20069;-64
2022/10/26 08:38:32;;;;;;;5.53;1.40;;;14.70;99.90;;;;;;5027051;28;20507;-65
2022/10/26 08:41:04;;;;;;;3.70;1.67;;;14.70;99.90;;;;;;5027365;28;20520;-65
2022/10/26 08:43:38;;;;;;;4.18;2.00;;;14.80;99.90;;;;;;5027161;28;20029;-65
2022/10/26 08:46:13;;;;;;;;;;;14.90;99.90;;;;;;5026351;28;20102;-64
2022/10/26 08:48:43;;;;;;;4.85;1.50;;;14.90;99.90;;;;;;5027248;28;19913;-64
2022/10/26 08:51:17;;;;;;;4.10;2.15;;;15.00;99.90;;;;;;5026237;28;20087;-64
2022/10/26 08:54:06;;;;;;;6.03;1.60;;;15.10;99.90;;;;;;5024435;28;20034;-64
2022/10/26 08:56:49;;;;;;;8.77;1.88;;;15.20;99.90;;;;;;5022072;28;21332;-65
2022/10/26 08:59:36;;;;;;;7.13;1.95;;;15.30;99.90;;;;;;5031290;28;20041;-64
2022/10/26 09:02:01;;;;;;;3.78;1.70;;;15.40;99.90;;;;;;5030635;28;20393;-64
2022/10/26 09:04:30;;;;;;;10.40;1.92;;;15.60;99.90;;;;;;4992468;28;1063270;-65
2022/10/26 09:07:07;;;;;;;7.75;1.70;;;15.70;99.90;;;;;;5030216;28;20056;-65
2022/10/26 09:09:54;;;;;;;5.38;1.40;;;15.90;99.90;;;;;;5031922;28;20033;-64
2022/10/26 09:12:43;;;;;;;7.55;1.27;;;16.30;99.90;;;;;;5031871;28;20029;-65
2022/10/26 09:15:34;;;;;;;7.78;1.75;;;16.80;99.90;;;;;;5031669;28;20036;-65
2022/10/26 09:18:31;;;;;;;2.95;1.45;;;17.40;99.90;;;;;;5031575;28;20022;-64
2022/10/26 09:21:20;;;;;;;7.80;1.33;;;17.70;99.90;;;;;;5029337;28;20155;-65
2022/10/26 09:24:14;;;;;;;5.72;1.52;;;18.00;99.90;;;;;;5030309;28;20053;-65
2022/10/26 09:27:06;;;;;;;6.85;2.00;;;18.00;99.90;;;;;;5027258;28;20061;-66
2022/10/26 09:29:39;;;;;;;3.67;1.30;;;18.30;99.90;;;;;;5016074;28;20549;-65
2022/10/26 09:32:09;;;;;;;2.05;1.00;;;18.40;99.90;;;;;;5026798;28;20091;-65
2022/10/26 09:35:12;;;;;;;3.65;1.50;;;18.40;99.90;;;;;;5029663;28;20083;-65
2022/10/26 09:37:45;;;;;;;6.40;1.58;;;18.40;99.90;;;;;;5030672;28;20109;-65
2022/10/26 09:40:26;;;;;;;4.65;1.20;;;18.10;99.90;;;;;;5024853;28;20903;-64
2022/10/26 09:42:58;;;;;;;2.95;1.08;;;18.10;99.90;;;;;;5030163;28;20033;-65
2022/10/26 09:45:34;;;;;;;2.63;1.50;;;18.20;99.90;;;;;;5014499;28;20025;-65
2022/10/26 09:48:15;;;;;;;3.55;1.17;;;18.50;99.90;;;;;;5029052;28;20033;-65
2022/10/26 09:50:46;;;;;;;5.93;1.35;;;18.80;99.90;;;;;;5027976;28;20033;-64
2022/10/26 09:53:11;;;;;;;5.43;1.85;;;18.90;99.90;;;;;;5027206;28;21104;-64
2022/10/26 10:16:05;;;;;;;3.63;1.52;;;18.10;99.90;;;;;;5011858;28;20040;-64
2022/10/26 10:18:31;;;;;;;5.53;2.30;;;18.20;99.90;;;;;;5028056;28;20120;-64
2022/10/26 10:20:58;;;;;;;6.03;2.47;;;18.30;99.90;;;;;;5014237;28;20026;-64
2022/10/26 10:23:35;;;;;;;3.90;1.48;;;18.30;99.90;;;;;;5021599;28;20244;-64
2022/10/26 10:26:09;;;;;;;8.00;1.88;;;18.30;99.90;;;;;;5029148;28;20083;-65
2022/10/26 10:28:36;;;;;;;6.43;1.73;;;18.40;99.90;;;;;;5030035;28;20063;-65
2022/10/26 10:31:17;;;;;;;6.95;1.75;;;18.40;99.90;;;;;;5012557;28;20104;-65
2022/10/26 10:33:44;;;;;;;5.63;1.58;;;18.40;99.90;;;;;;5030709;28;20493;-65
2022/10/26 10:36:21;;;;;;;5.57;1.52;;;18.30;99.90;;;;;;5031170;28;20021;-64
2022/10/26 10:38:48;;;;;;;6.25;1.33;;;18.00;99.90;;;;;;5028587;28;20037;-65
2022/10/26 10:41:36;;;;;;;8.57;1.52;;;17.90;99.90;;;;;;5029637;28;20029;-64
2022/10/26 10:44:17;;;;;;;4.43;1.60;;;17.90;99.90;;;;;;5025968;28;20037;-65
2022/10/26 10:46:43;;;;;;;5.40;1.60;;;18.00;99.90;;;;;;5027191;28;20120;-64
2022/10/26 10:49:24;;;;;;;7.00;1.42;;;18.20;99.90;;;;;;5027456;28;20108;-64
2022/10/26 10:51:50;;;;;;;3.53;1.50;;;18.30;99.90;;;;;;5026602;28;20040;-65
2022/10/26 10:54:32;;;;;;;4.13;1.70;;;18.30;99.90;;;;;;5025714;28;20704;-64
2022/10/26 10:57:16;;;;;;;4.07;1.77;;;18.40;99.90;;;;;;5029268;28;20033;-65
2022/10/26 10:59:59;;;;;;;5.15;2.67;;;18.50;99.90;;;;;;5028017;28;20070;-64
2022/10/26 11:02:40;;;;;;;3.03;1.35;;;18.50;99.90;;;;;;5030971;28;20116;-64
2022/10/26 11:05:05;;;;;;;3.67;1.45;;;18.60;99.90;;;;;;4994013;28;20430;-65
2022/10/26 11:07:38;;;;;;;8.68;2.30;;;18.60;99.90;;;;;;5029546;28;20029;-64
2022/10/26 11:10:05;;;;;;;5.07;1.60;;;18.70;99.90;;;;;;5028292;28;20025;-63
2022/10/26 11:12:40;;;;;;;7.93;1.77;;;18.70;99.90;;;;;;5027508;28;20101;-65
2022/10/26 11:15:12;;;;;;;3.95;1.80;;;18.70;99.90;;;;;;5026671;28;20036;-65
2022/10/26 11:17:58;;;;;;;7.05;1.92;;;18.80;99.90;;;;;;5049070;23;20049;-66
2022/10/26 11:20:28;;;;;;;3.55;1.30;;;18.90;99.90;;;;;;5023102;28;20039;-66
2022/10/26 11:23:12;;;;;;;5.40;1.70;;;18.90;99.90;;;;;;5020977;28;20029;-65
2022/10/26 11:25:50;;;;;;;5.25;1.60;;;18.90;99.90;;;;;;5027111;28;20049;-66
2022/10/26 11:28:34;;;;;;;4.50;1.83;;;19.00;99.90;;;;;;5001668;28;20060;-68
2022/10/26 11:31:03;;;;;;;;;;;19.10;99.90;;;;;;5027700;28;20500;-68
2022/10/26 11:33:35;;;;;;;4.57;1.40;;;19.20;99.90;;;;;;5030545;28;19905;-68
2022/10/26 11:36:23;;;;;;;4.53;1.48;;;19.20;99.90;;;;;;5025867;28;20034;-68
2022/10/26 11:38:56;;;;;;;3.25;1.95;;;19.20;99.90;;;;;;5029263;28;20033;-67
2022/10/26 11:41:31;;;;;;;13.48;2.45;;;19.10;99.90;;;;;;5028351;28;20036;-67
2022/10/26 11:44:12;;;;;;;2.90;1.33;;;19.20;99.90;;;;;;5030636;28;20140;-65
2022/10/26 11:46:43;;;;;;;8.98;2.25;;;19.30;99.90;;;;;;5027089;28;20040;-68
2022/10/26 11:49:41;;;;;;;5.25;1.30;;;19.40;99.90;;;;;;5026334;28;20034;-68
2022/10/26 11:52:29;;;;;;;5.68;1.10;;;19.50;99.90;;;;;;5028014;28;20598;-70
2022/10/26 11:54:59;;;;;;;4.47;1.58;;;19.60;99.90;;;;;;5021497;28;20033;-66
2022/10/26 11:57:27;;;;;;;3.92;1.45;;;19.70;99.90;;;;;;5023095;28;20033;-66
2022/10/26 12:00:01;;;;;;;2.40;1.30;;;19.80;99.90;;;;;;5027746;28;20017;-66
2022/10/26 12:02:26;;;;;;;5.38;1.08;;;20.00;99.90;;;;;;5025554;28;20049;-63
2022/10/26 12:05:07;;;;;;;6.00;1.20;;;20.30;99.90;;;;;;4990713;28;20080;-66
2022/10/26 12:07:36;;;;;;;2.97;0.93;;;20.50;99.90;;;;;;5028521;28;20037;-67
2022/10/26 12:10:05;;;;;;;2.72;0.80;;;20.50;99.90;;;;;;5023436;28;20022;-66
2022/10/26 12:12:41;;;;;;;2.33;0.80;;;20.60;99.90;;;;;;5026701;28;20034;-66
2022/10/26 12:15:45;;;;;;;2.00;0.80;;;20.60;99.90;;;;;;5010877;28;20064;-66
2022/10/26 12:18:25;;;;;;;2.63;0.80;;;20.50;99.90;;;;;;5020049;28;20021;-65
2022/10/26 12:21:01;;;;;;;4.10;1.38;;;20.40;99.90;;;;;;5026299;28;20045;-65
2022/10/26 12:23:28;;;;;;;4.45;0.80;;;20.30;99.90;;;;;;5027028;28;20451;-66
2022/10/26 12:26:22;;;;;;;3.17;0.80;;;20.30;99.90;;;;;;5017077;28;20099;-66
2022/10/26 12:29:08;;;;;;;4.32;0.80;;;20.30;99.90;;;;;;5020704;28;20029;-66
2022/10/26 12:31:36;;;;;;;3.47;0.82;;;20.30;99.90;;;;;;5020118;28;20033;-66
2022/10/26 12:34:04;;;;;;;3.28;1.35;;;20.50;99.90;;;;;;5026096;28;20040;-66
2022/10/26 12:36:49;;;;;;;4.32;1.10;;;20.40;99.90;;;;;;5027656;28;20029;-65
2022/10/26 12:39:39;;;;;;;7.80;1.17;;;20.50;99.90;;;;;;5026212;28;20038;-66
2022/10/26 12:42:04;;;;;;;4.13;1.15;;;20.50;99.90;;;;;;5027212;28;20034;-66
2022/10/26 12:44:40;;;;;;;3.63;1.00;;;20.50;99.90;;;;;;5028781;28;20040;-66
2022/10/26 12:47:08;;;;;;;3.67;1.05;;;20.60;99.90;;;;;;5029374;28;20496;-66
2022/10/26 12:50:01;;;;;;;2.00;1.27;;;20.50;99.90;;;;;;5029376;28;20392;-66
2022/10/26 12:53:07;;;;;;;2.58;1.10;;;20.40;99.90;;;;;;5029653;28;20017;-66
2022/10/26 12:55:53;;;;;;;4.63;1.20;;;20.20;99.90;;;;;;5028752;28;20396;-66
2022/10/26 12:58:42;;;;;;;5.88;1.27;;;20.20;99.90;;;;;;5029993;28;20473;-66
2022/10/26 13:01:22;;;;;;;3.40;1.10;;;20.10;99.90;;;;;;5028438;28;20562;-68
2022/10/26 13:04:16;;;;;;;3.63;0.95;;;20.20;99.90;;;;;;5011605;28;20033;-69
2022/10/26 13:07:16;;;;;;;3.00;1.05;;;20.30;99.90;;;;;;5004262;28;20030;-66
2022/10/26 13:09:49;;;;;;;8.07;0.85;;;20.40;99.90;;;;;;5001641;28;20250;-66
2022/10/26 13:12:15;;;;;;;2.47;0.75;;;20.60;99.90;;;;;;5009268;28;20108;-66
2022/10/26 13:14:59;;;;;;;4.05;0.90;;;20.70;99.90;;;;;;5010241;28;20108;-66
2022/10/26 13:17:27;;;;;;;4.82;1.20;;;20.80;99.90;;;;;;4991834;28;20113;-66
2022/10/26 13:20:04;;;;;;;1.45;0.70;;;20.80;99.90;;;;;;5005993;28;20033;-66
2022/10/26 13:22:30;;;;;;;5.15;0.93;;;21.00;99.90;;;;;;4997384;28;20519;-66
2022/10/26 13:25:00;;;;;;;4.20;0.88;;;21.00;99.90;;;;;;5009501;28;20053;-66
2022/10/26 13:27:32;;;;;;;3.08;0.80;;;21.10;99.90;;;;;;5000858;28;20076;-66
2022/10/26 13:30:03;;;;;;;0.95;0.60;;;21.00;99.90;;;;;;5005293;28;20022;-65
2022/10/26 13:32:32;;;;;;;3.30;0.90;;;20.90;99.90;;;;;;4991916;28;20022;-68
2022/10/26 13:35:00;;;;;;;3.90;0.90;;;20.80;99.90;;;;;;5003600;28;20497;-65